createdAt,value
2019-05-18T00:02:13.138Z,9.04
2019-05-18T00:07:20.747Z,8.27
2019-05-18T00:12:28.433Z,8.49
2019-05-18T00:17:36.046Z,8.76
2019-05-18T00:22:43.729Z,7.98
2019-05-18T00:27:51.333Z,7.65
2019-05-18T00:32:58.948Z,7.71
2019-05-18T00:38:06.574Z,8.39
2019-05-18T00:43:14.250Z,7.56
2019-05-18T00:48:21.869Z,7.58
2019-05-18T00:53:29.604Z,7.48
2019-05-18T00:58:37.195Z,7.57
2019-05-18T01:03:44.831Z,7.44
2019-05-18T01:08:52.460Z,7.82
2019-05-18T01:14:00.055Z,7.13
2019-05-18T01:19:07.646Z,7.01
2019-05-18T01:24:15.273Z,7.05
2019-05-18T01:29:22.867Z,7.13
2019-05-18T01:34:30.536Z,7.71
2019-05-18T01:39:38.131Z,7.72
2019-05-18T01:44:45.780Z,8.19
2019-05-18T01:49:53.363Z,8.29
2019-05-18T01:55:01.030Z,8.28
2019-05-18T02:00:08.655Z,9.39
2019-05-18T02:05:16.339Z,7.90
2019-05-18T02:10:24.035Z,8.86
2019-05-18T02:15:31.769Z,8.39
2019-05-18T02:20:39.358Z,8.57
2019-05-18T02:25:47.014Z,10.47
2019-05-18T02:30:54.632Z,10.80
2019-05-18T02:36:02.315Z,10.90
2019-05-18T02:41:09.934Z,11.29
2019-05-18T02:46:17.605Z,11.85
2019-05-18T02:51:25.213Z,11.74
2019-05-18T02:56:33.923Z,12.04
2019-05-18T03:01:41.517Z,12.10
2019-05-18T03:06:49.143Z,11.60
2019-05-18T03:11:56.750Z,10.98
2019-05-18T03:17:04.458Z,10.71
2019-05-18T03:22:12.066Z,10.83
2019-05-18T03:27:19.719Z,10.82
2019-05-18T03:32:27.330Z,10.13
2019-05-18T03:37:34.982Z,11.96
2019-05-18T03:42:42.568Z,10.45
2019-05-18T03:47:50.245Z,9.58
2019-05-18T03:52:57.853Z,9.93
2019-05-18T03:58:05.484Z,9.28
2019-05-18T04:03:13.103Z,8.61
2019-05-18T04:08:20.761Z,8.11
2019-05-18T04:13:28.380Z,8.19
2019-05-18T04:18:36.080Z,7.81
2019-05-18T04:23:43.689Z,7.32
2019-05-18T04:28:51.454Z,6.90
2019-05-18T04:33:58.987Z,7.30
2019-05-18T04:39:06.690Z,7.37
2019-05-18T04:44:14.269Z,7.46
2019-05-18T04:49:21.914Z,8.43
2019-05-18T04:54:29.514Z,8.27
2019-05-18T04:59:37.192Z,7.91
2019-05-18T05:04:44.778Z,7.74
2019-05-18T05:09:52.410Z,7.74
2019-05-18T05:14:59.995Z,7.94
2019-05-18T05:20:19.279Z,7.34
2019-05-18T05:25:14.794Z,7.09
2019-05-18T05:30:22.458Z,7.25
2019-05-18T05:35:30.057Z,7.63
2019-05-18T05:40:37.679Z,7.54
2019-05-18T05:45:45.282Z,7.31
2019-05-18T05:50:52.918Z,6.53
2019-05-18T05:56:00.514Z,6.44
2019-05-18T06:01:08.190Z,6.80
2019-05-18T06:06:15.763Z,6.20
2019-05-18T06:11:23.449Z,6.20
2019-05-18T06:16:31.026Z,7.05
2019-05-18T06:21:38.713Z,6.11
2019-05-18T06:26:46.318Z,6.04
2019-05-18T06:31:53.995Z,6.13
2019-05-18T06:37:01.616Z,6.66
2019-05-18T06:42:10.958Z,6.65
2019-05-18T06:47:16.398Z,6.41
2019-05-18T06:52:24.096Z,5.91
2019-05-18T06:57:31.702Z,5.85
2019-05-18T07:02:39.353Z,5.66
2019-05-18T07:07:47.006Z,5.89
2019-05-18T07:12:54.650Z,5.97
2019-05-18T07:18:02.248Z,6.30
2019-05-18T07:23:10.081Z,6.59
2019-05-18T07:28:17.675Z,6.44
2019-05-18T07:33:25.361Z,6.74
2019-05-18T07:38:32.986Z,6.53
2019-05-18T07:43:40.626Z,6.55
2019-05-18T07:48:48.227Z,7.43
2019-05-18T07:53:55.818Z,6.87
2019-05-18T07:59:03.413Z,7.36
2019-05-18T08:04:11.100Z,7.08
2019-05-18T08:09:18.697Z,6.95
2019-05-18T08:14:26.368Z,6.96
2019-05-18T08:19:33.973Z,6.51
2019-05-18T08:24:41.632Z,6.59
2019-05-18T08:29:49.243Z,6.79
2019-05-18T08:34:56.913Z,6.88
2019-05-18T08:40:04.526Z,6.46
2019-05-18T08:45:12.232Z,5.60
2019-05-18T08:50:19.849Z,5.67
2019-05-18T08:55:27.532Z,5.70
2019-05-18T09:00:35.128Z,5.79
2019-05-18T09:05:42.797Z,5.63
2019-05-18T09:10:50.358Z,5.53
2019-05-18T09:15:57.970Z,5.36
2019-05-18T09:21:05.569Z,5.38
2019-05-18T09:26:13.202Z,5.32
2019-05-18T09:31:20.792Z,5.06
2019-05-18T09:36:28.449Z,4.71
2019-05-18T09:41:36.036Z,4.76
2019-05-18T09:46:43.669Z,4.92
2019-05-18T09:51:51.276Z,5.55
2019-05-18T09:56:58.900Z,5.29
2019-05-18T10:02:06.499Z,5.36
2019-05-18T10:07:14.118Z,5.83
2019-05-18T10:12:24.577Z,5.82
2019-05-18T10:17:28.895Z,6.14
2019-05-18T10:22:36.505Z,5.87
2019-05-18T10:27:44.176Z,6.18
2019-05-18T10:32:51.763Z,5.78
2019-05-18T10:37:59.382Z,4.48
2019-05-18T10:43:06.967Z,4.71
2019-05-18T10:48:14.753Z,4.61
2019-05-18T10:53:28.673Z,4.82
2019-05-18T10:58:29.506Z,4.64
2019-05-18T11:03:37.152Z,4.89
2019-05-18T11:08:44.789Z,5.21
2019-05-18T11:13:52.391Z,4.58
2019-05-18T11:19:00.081Z,4.74
2019-05-18T11:24:07.687Z,4.76
2019-05-18T11:29:15.377Z,5.13
2019-05-18T11:34:22.963Z,4.84
2019-05-18T11:39:30.646Z,4.61
2019-05-18T11:44:38.234Z,5.08
2019-05-18T11:49:45.918Z,5.07
2019-05-18T11:54:53.514Z,5.01
2019-05-18T12:00:01.226Z,4.93
2019-05-18T12:05:08.834Z,5.14
2019-05-18T12:10:18.379Z,4.32
2019-05-18T12:15:23.585Z,4.64
2019-05-18T12:20:31.295Z,4.87
2019-05-18T12:25:38.879Z,4.82
2019-05-18T12:30:46.612Z,3.98
2019-05-18T12:35:54.185Z,4.12
2019-05-18T12:41:01.871Z,4.02
2019-05-18T12:46:09.454Z,4.45
2019-05-18T12:51:17.084Z,4.08
2019-05-18T12:56:24.671Z,4.18
2019-05-18T13:01:32.354Z,4.01
2019-05-18T13:06:39.938Z,4.41
2019-05-18T13:11:47.583Z,4.21
2019-05-18T13:16:55.181Z,4.01
2019-05-18T13:22:02.843Z,3.60
2019-05-18T13:27:10.457Z,3.66
2019-05-18T13:32:18.140Z,3.68
2019-05-18T13:37:25.745Z,4.51
2019-05-18T13:42:33.481Z,4.25
2019-05-18T13:47:41.062Z,4.39
2019-05-18T13:52:48.759Z,4.43
2019-05-18T13:57:56.366Z,4.15
2019-05-18T14:03:04.005Z,4.06
2019-05-18T14:08:15.787Z,3.65
2019-05-18T14:13:19.055Z,4.00
2019-05-18T14:18:26.626Z,3.89
2019-05-18T14:23:34.257Z,4.06
2019-05-18T14:28:41.848Z,3.92
2019-05-18T14:33:49.481Z,3.65
2019-05-18T14:38:57.128Z,3.91
2019-05-18T14:44:04.750Z,3.85
2019-05-18T14:49:12.339Z,4.10
2019-05-18T14:54:24.665Z,3.83
2019-05-18T14:59:27.268Z,3.83
2019-05-18T15:04:34.914Z,3.94
2019-05-18T15:09:42.529Z,3.83
2019-05-18T15:14:50.243Z,3.55
2019-05-18T15:19:57.936Z,4.05
2019-05-18T15:25:05.539Z,4.37
2019-05-18T15:30:13.127Z,4.29
2019-05-18T15:35:20.758Z,4.10
2019-05-18T15:40:28.371Z,4.15
2019-05-18T15:45:36.001Z,3.77
2019-05-18T15:50:43.624Z,3.60
2019-05-18T15:56:04.808Z,2.97
2019-05-18T16:00:58.529Z,2.99
2019-05-18T16:06:06.201Z,3.94
2019-05-18T16:11:13.860Z,2.83
2019-05-18T16:16:21.630Z,2.88
2019-05-18T16:21:29.217Z,2.88
2019-05-18T16:26:36.872Z,2.65
2019-05-18T16:31:44.469Z,3.71
2019-05-18T16:36:52.103Z,2.60
2019-05-18T16:41:59.688Z,2.36
2019-05-18T16:47:07.321Z,2.50
2019-05-18T16:52:14.922Z,2.35
2019-05-18T16:57:22.556Z,2.64
2019-05-18T17:02:31.997Z,2.59
2019-05-18T17:07:37.382Z,2.97
2019-05-18T17:12:44.982Z,2.84
2019-05-18T17:17:52.631Z,3.05
2019-05-18T17:23:00.211Z,3.45
2019-05-18T17:28:07.857Z,3.23
2019-05-18T17:33:15.455Z,3.51
2019-05-18T17:38:23.130Z,3.53
2019-05-18T17:43:30.744Z,4.07
2019-05-18T17:48:38.445Z,4.09
2019-05-18T17:53:46.039Z,4.74
2019-05-18T17:58:53.735Z,4.72
2019-05-18T18:04:01.337Z,5.07
2019-05-18T18:09:08.965Z,5.31
2019-05-18T18:14:16.559Z,5.47
2019-05-18T18:19:24.180Z,5.42
2019-05-18T18:24:31.797Z,5.51
2019-05-18T18:29:39.440Z,5.02
2019-05-18T18:34:47.049Z,4.98
2019-05-18T18:39:54.687Z,4.86
2019-05-18T18:45:02.336Z,5.32
2019-05-18T18:50:09.994Z,4.85
2019-05-18T18:55:17.624Z,5.15
2019-05-18T19:00:25.301Z,5.45
2019-05-18T19:05:32.908Z,5.39
2019-05-18T19:10:40.588Z,5.79
2019-05-18T19:15:48.184Z,5.51
2019-05-18T19:20:55.857Z,5.19
2019-05-18T19:26:03.475Z,5.27
2019-05-18T19:31:11.134Z,5.01
2019-05-18T19:36:18.773Z,5.06
2019-05-18T19:41:26.424Z,5.66
2019-05-18T19:46:34.040Z,5.92
2019-05-18T19:51:41.681Z,5.78
2019-05-18T19:56:49.305Z,5.92
2019-05-18T20:01:56.980Z,5.75
2019-05-18T20:07:04.599Z,5.76
2019-05-18T20:12:12.282Z,5.74
2019-05-18T20:17:19.894Z,5.72
2019-05-18T20:22:27.637Z,5.53
2019-05-18T20:27:35.285Z,5.10
2019-05-18T20:32:42.927Z,5.06
2019-05-18T20:37:50.539Z,5.05
2019-05-18T20:42:58.186Z,4.92
2019-05-18T20:48:05.798Z,5.32
2019-05-18T20:53:13.450Z,5.49
2019-05-18T20:58:21.035Z,5.53
2019-05-18T21:03:28.714Z,5.53
2019-05-18T21:08:36.314Z,5.55
2019-05-18T21:13:43.980Z,5.58
2019-05-18T21:18:51.567Z,5.47
2019-05-18T21:23:59.251Z,6.22
2019-05-18T21:29:06.710Z,6.67
2019-05-18T21:34:14.369Z,6.50
2019-05-18T21:39:21.970Z,6.33
2019-05-18T21:44:29.653Z,6.55
2019-05-18T21:49:37.242Z,6.20
2019-05-18T21:54:44.872Z,6.48
2019-05-18T21:59:52.496Z,6.63
2019-05-18T22:05:00.143Z,6.26
2019-05-18T22:10:07.775Z,6.44
2019-05-18T22:15:15.484Z,6.18
2019-05-18T22:20:23.102Z,5.79
2019-05-18T22:25:30.740Z,5.88
2019-05-18T22:30:38.345Z,5.81
2019-05-18T22:35:45.989Z,5.33
2019-05-18T22:40:53.585Z,5.11
2019-05-18T22:46:01.274Z,5.67
2019-05-18T22:51:08.877Z,5.84
2019-05-18T22:56:16.506Z,5.80
2019-05-18T23:01:24.095Z,6.15
2019-05-18T23:06:31.902Z,6.06
2019-05-18T23:11:39.488Z,5.97
2019-05-18T23:16:47.120Z,6.28
2019-05-18T23:21:54.723Z,7.06
2019-05-18T23:27:02.386Z,7.79
2019-05-18T23:32:10.002Z,7.91
2019-05-18T23:37:17.671Z,8.91
2019-05-18T23:42:25.268Z,10.71
2019-05-18T23:47:32.920Z,10.42
2019-05-18T23:52:40.523Z,10.05
2019-05-18T23:57:48.232Z,10.71
